Forester — DIUT — position and weather

sailwx.info

Track history (hours):
 
Tides and Currents Weather Stations Pressure Air Temp Water Temp Dewpoint Dewpoint Depression Visibility Wind Speed Wind Dir Waves Ship Positions

Forester

Last reported at 2016-May-29 08:33 UTC. Time now 2016-May-29 21:06 UTC.
Position N 59°03' E 009°43'.

Length 100 m; draft 7.3 m.

Type: Ship. MMSI: 211233870.

Date/timePositionNaut miles runAvg speedWind from/ knotsBaromVisibWave heightAir tempDewpointWater temp
2016-May-29 08:33N 59°03' E 009°43'8 8.3
2016-May-29 07:33N 58°55' E 009°46'46 9.3
2016-May-29 02:33N 58°17' E 008°56'10 9.8
2016-May-29 01:33N 58°09' E 008°45'58 9.7
2016-May-28 19:33N 57°22' E 007°40'1010.3
2016-May-28 18:33N 57°14' E 007°28'10 9.9
2016-May-28 17:33N 57°07' E 007°17'1110.1
2016-May-28 16:28N 56°58' E 007°04'135 8.8
2016-May-28 01:12N 54°52' E 005°38'711.1
2016-May-28 00:32N 54°45' E 005°34'1611.4
2016-May-27 23:07N 54°30' E 005°24'711.3
2016-May-27 22:33N 54°24' E 005°20'1111.4
2016-May-27 21:33N 54°13' E 005°13'1111.3
2016-May-27 20:33N 54°03' E 005°06'1111.3
2016-May-27 19:33N 53°52' E 004°60'1111.0
2016-May-27 18:32N 53°42' E 004°53'1010.7
2016-May-27 17:33N 53°32' E 004°47'1010.0
2016-May-27 16:33N 53°22' E 004°41'19 9.5
2016-May-27 14:33N 53°04' E 004°31'9 9.4
2016-May-27 13:33N 52°55' E 004°26'9 9.4
2016-May-27 12:33N 52°47' E 004°20'1010.0
2016-May-27 11:33N 52°40' E 004°08'10 9.7
2016-May-27 10:33N 52°34' E 003°56'1010.4
2016-May-27 09:33N 52°27' E 003°43'1210.8
2016-May-27 08:28N 52°19' E 003°29'1111.3
2016-May-27 07:33N 52°12' E 003°16'1211.7
2016-May-27 06:30N 52°03' E 003°02'1212.2
2016-May-27 05:32N 51°54' E 002°50'1312.9
2016-May-27 04:33N 51°44' E 002°37'1211.7
2016-May-27 03:32N 51°35' E 002°26'1212.0
2016-May-27 02:34N 51°25' E 002°15'1211.6
2016-May-27 01:33N 51°15' E 002°05'1111.1
2016-May-27 00:32N 51°08' E 001°51'1010.2
2016-May-26 23:33N 51°01' E 001°40'9 9.1
2016-May-26 22:34N 50°54' E 001°30'9 8.7
2016-May-26 21:33N 50°46' E 001°26'36 9.0
2016-May-26 17:31N 50°24' E 000°41'9 9.5
2016-May-26 16:33N 50°21' E 000°27'10 9.6
2016-May-26 15:33N 50°19' E 000°13'1010.0
2016-May-26 14:33N 50°16' W 000°02'1110.7
2016-May-26 13:33N 50°12' W 000°18'1211.5
2016-May-26 12:33N 50°08' W 000°35'1312.8
2016-May-26 11:33N 50°04' W 000°54'1413.6
2016-May-26 10:33N 49°60' W 001°14'1413.9
2016-May-26 09:33N 49°55' W 001°35'14610.1
2016-May-25 19:06N 48°58' W 005°00'611.0
2016-May-25 18:33N 48°55' W 005°08'8 8.3
2016-May-25 17:33N 48°51' W 005°19'7 6.9
2016-May-25 16:33N 48°48' W 005°28'  
2016-May-23 05:24N 39°21' W 009°50'910.3
2016-May-23 04:32N 39°12' W 009°50'1010.3
2016-May-23 03:33N 39°02' W 009°51'10 9.9
2016-May-23 02:33N 38°52' W 009°51'1010.4
2016-May-23 01:33N 38°41' W 009°51'10 9.8
2016-May-23 00:33N 38°32' W 009°46'10 9.6
2016-May-22 23:33N 38°23' W 009°44'9 9.2
2016-May-22 22:33N 38°14' W 009°41'9 9.5
2016-May-22 21:33N 38°04' W 009°39'9 9.4
2016-May-22 20:33N 37°55' W 009°36'9 9.2
2016-May-22 19:33N 37°46' W 009°34'9 9.3
2016-May-22 18:33N 37°37' W 009°31'10 9.6
2016-May-22 17:33N 37°28' W 009°28'1010.1
2016-May-22 16:33N 37°18' W 009°25'1110.5
2016-May-22 15:33N 37°08' W 009°22'19310.6
2016-May-21 21:21N 35°58' W 005°38'7 9.3
2016-May-21 20:33N 36°00' W 005°29'8 8.3
2016-May-21 19:33N 36°02' W 005°19'19911.0
2016-May-21 01:28N 37°01' W 001°23'1011.0
2016-May-21 00:32N 37°07' W 001°13'1111.4
2016-May-20 23:33N 37°15' W 001°03'1111.3
2016-May-20 22:33N 37°22' W 000°52'1111.2
2016-May-20 21:33N 37°29' W 000°41'1110.7
2016-May-20 20:33N 37°37' W 000°33'1111.3
2016-May-20 19:33N 37°48' W 000°30'1111.3
2016-May-20 18:34N 37°59' W 000°27'1311.0
2016-May-20 17:21N 38°13' W 000°26'102 3.2
2016-May-19 09:26N 37°55' E 001°42'  
Track history (hours):
 
Tides and Currents Weather Stations Pressure Air Temp Water Temp Dewpoint Dewpoint Depression Visibility Wind Speed Wind Dir Waves Ship Positions

Forester

Last reported at 2016-May-29 08:33 UTC. Time now 2016-May-29 21:06 UTC.
Position N 59°03' E 009°43'.

Length 100 m; draft 7.3 m.

Type: Ship. MMSI: 211233870.

Date/timePositionNaut miles runAvg speedWind from/ knotsBaromVisibWave heightAir tempDewpointWater temp
2016-May-29 08:33N 59°03' E 009°43'8 8.3
2016-May-29 07:33N 58°55' E 009°46'46 9.3
2016-May-29 02:33N 58°17' E 008°56'10 9.8
2016-May-29 01:33N 58°09' E 008°45'58 9.7
2016-May-28 19:33N 57°22' E 007°40'1010.3
2016-May-28 18:33N 57°14' E 007°28'10 9.9
2016-May-28 17:33N 57°07' E 007°17'1110.1
2016-May-28 16:28N 56°58' E 007°04'135 8.8
2016-May-28 01:12N 54°52' E 005°38'711.1
2016-May-28 00:32N 54°45' E 005°34'1611.4
2016-May-27 23:07N 54°30' E 005°24'711.3
2016-May-27 22:33N 54°24' E 005°20'1111.4
2016-May-27 21:33N 54°13' E 005°13'1111.3
2016-May-27 20:33N 54°03' E 005°06'1111.3
2016-May-27 19:33N 53°52' E 004°60'1111.0
2016-May-27 18:32N 53°42' E 004°53'1010.7
2016-May-27 17:33N 53°32' E 004°47'1010.0
2016-May-27 16:33N 53°22' E 004°41'19 9.5
2016-May-27 14:33N 53°04' E 004°31'9 9.4
2016-May-27 13:33N 52°55' E 004°26'9 9.4
2016-May-27 12:33N 52°47' E 004°20'1010.0
2016-May-27 11:33N 52°40' E 004°08'10 9.7
2016-May-27 10:33N 52°34' E 003°56'1010.4
2016-May-27 09:33N 52°27' E 003°43'1210.8
2016-May-27 08:28N 52°19' E 003°29'1111.3
2016-May-27 07:33N 52°12' E 003°16'1211.7
2016-May-27 06:30N 52°03' E 003°02'1212.2
2016-May-27 05:32N 51°54' E 002°50'1312.9
2016-May-27 04:33N 51°44' E 002°37'1211.7
2016-May-27 03:32N 51°35' E 002°26'1212.0
2016-May-27 02:34N 51°25' E 002°15'1211.6
2016-May-27 01:33N 51°15' E 002°05'1111.1
2016-May-27 00:32N 51°08' E 001°51'1010.2
2016-May-26 23:33N 51°01' E 001°40'9 9.1
2016-May-26 22:34N 50°54' E 001°30'9 8.7
2016-May-26 21:33N 50°46' E 001°26'36 9.0
2016-May-26 17:31N 50°24' E 000°41'9 9.5
2016-May-26 16:33N 50°21' E 000°27'10 9.6
2016-May-26 15:33N 50°19' E 000°13'1010.0
2016-May-26 14:33N 50°16' W 000°02'1110.7
2016-May-26 13:33N 50°12' W 000°18'1211.5
2016-May-26 12:33N 50°08' W 000°35'1312.8
2016-May-26 11:33N 50°04' W 000°54'1413.6
2016-May-26 10:33N 49°60' W 001°14'1413.9
2016-May-26 09:33N 49°55' W 001°35'14610.1
2016-May-25 19:06N 48°58' W 005°00'611.0
2016-May-25 18:33N 48°55' W 005°08'8 8.3
2016-May-25 17:33N 48°51' W 005°19'7 6.9
2016-May-25 16:33N 48°48' W 005°28'  
2016-May-23 05:24N 39°21' W 009°50'910.3
2016-May-23 04:32N 39°12' W 009°50'1010.3
2016-May-23 03:33N 39°02' W 009°51'10 9.9
2016-May-23 02:33N 38°52' W 009°51'1010.4
2016-May-23 01:33N 38°41' W 009°51'10 9.8
2016-May-23 00:33N 38°32' W 009°46'10 9.6
2016-May-22 23:33N 38°23' W 009°44'9 9.2
2016-May-22 22:33N 38°14' W 009°41'9 9.5
2016-May-22 21:33N 38°04' W 009°39'9 9.4
2016-May-22 20:33N 37°55' W 009°36'9 9.2
2016-May-22 19:33N 37°46' W 009°34'9 9.3
2016-May-22 18:33N 37°37' W 009°31'10 9.6
2016-May-22 17:33N 37°28' W 009°28'1010.1
2016-May-22 16:33N 37°18' W 009°25'1110.5
2016-May-22 15:33N 37°08' W 009°22'19310.6
2016-May-21 21:21N 35°58' W 005°38'7 9.3
2016-May-21 20:33N 36°00' W 005°29'8 8.3
2016-May-21 19:33N 36°02' W 005°19'19911.0
2016-May-21 01:28N 37°01' W 001°23'1011.0
2016-May-21 00:32N 37°07' W 001°13'1111.4
2016-May-20 23:33N 37°15' W 001°03'1111.3
2016-May-20 22:33N 37°22' W 000°52'1111.2
2016-May-20 21:33N 37°29' W 000°41'1110.7
2016-May-20 20:33N 37°37' W 000°33'1111.3
2016-May-20 19:33N 37°48' W 000°30'1111.3
2016-May-20 18:34N 37°59' W 000°27'1311.0
2016-May-20 17:21N 38°13' W 000°26'102 3.2
2016-May-19 09:26N 37°55' E 001°42'  

Dump ship's entire track history